createdAt,value
2023-04-21T00:00:13.373Z,0.00
2023-04-21T00:01:13.346Z,0.00
2023-04-21T00:02:13.295Z,0.00
2023-04-21T00:03:13.417Z,0.00
2023-04-21T00:04:14.139Z,0.00
2023-04-21T00:05:13.452Z,0.00
2023-04-21T00:06:13.481Z,0.00
2023-04-21T00:07:13.465Z,0.00
2023-04-21T00:08:13.543Z,0.00
2023-04-21T00:09:13.518Z,0.00
2023-04-21T00:10:13.341Z,0.00
2023-04-21T00:11:13.374Z,0.08
2023-04-21T00:12:13.258Z,0.00
2023-04-21T00:13:13.147Z,0.48
2023-04-21T00:14:13.161Z,0.76
2023-04-21T00:15:13.013Z,0.84
2023-04-21T00:16:13.020Z,0.64
2023-04-21T00:17:12.934Z,0.72
2023-04-21T00:18:12.824Z,0.68
2023-04-21T00:19:13.845Z,0.08
2023-04-21T00:20:13.860Z,0.00
2023-04-21T00:21:14.167Z,1.12
2023-04-21T00:22:13.053Z,2.04
2023-04-21T00:23:13.932Z,1.32
2023-04-21T00:24:12.899Z,2.68
2023-04-21T00:25:12.899Z,2.52
2023-04-21T00:26:12.714Z,1.28
2023-04-21T00:27:18.653Z,0.72
2023-04-21T00:28:13.469Z,1.80
2023-04-21T00:29:13.385Z,1.20
2023-04-21T00:30:13.518Z,0.00
2023-04-21T00:31:13.753Z,0.00
2023-04-21T00:32:14.044Z,0.00
2023-04-21T00:33:12.863Z,0.12
2023-04-21T00:34:14.159Z,0.08
2023-04-21T00:35:13.430Z,0.20
2023-04-21T00:36:13.482Z,0.68
2023-04-21T00:37:13.789Z,1.04
2023-04-21T00:38:13.853Z,0.00
2023-04-21T00:39:14.314Z,0.60
2023-04-21T00:40:14.436Z,0.64
2023-04-21T00:41:13.403Z,2.56
2023-04-21T00:42:13.937Z,2.36
2023-04-21T00:43:12.743Z,2.24
2023-04-21T00:44:13.646Z,0.60
2023-04-21T00:45:13.627Z,0.68
2023-04-21T00:46:13.810Z,1.24
2023-04-21T00:47:13.901Z,1.28
2023-04-21T00:48:13.241Z,3.32
2023-04-21T00:49:13.254Z,2.36
2023-04-21T00:50:13.148Z,0.72
2023-04-21T00:51:13.052Z,0.08
2023-04-21T00:52:18.062Z,0.00
2023-04-21T00:53:12.962Z,0.08
2023-04-21T00:54:13.295Z,0.00
2023-04-21T00:55:13.616Z,0.00
2023-04-21T00:56:13.944Z,0.04
2023-04-21T00:57:13.055Z,0.00
2023-04-21T00:58:12.943Z,0.00
2023-04-21T00:59:12.869Z,0.00
2023-04-21T01:00:13.805Z,0.00
2023-04-21T01:01:13.834Z,0.00
2023-04-21T01:02:13.028Z,0.00
2023-04-21T01:03:13.543Z,0.00
2023-04-21T01:04:14.207Z,0.48
2023-04-21T01:05:13.396Z,0.80
2023-04-21T01:06:18.479Z,0.00
2023-04-21T01:08:13.291Z,0.06
2023-04-21T01:09:13.720Z,0.32
2023-04-21T01:10:13.556Z,0.12
2023-04-21T01:11:13.686Z,0.00
2023-04-21T01:12:13.617Z,0.00
2023-04-21T01:13:13.605Z,0.00
2023-04-21T01:14:13.560Z,0.00
2023-04-21T01:15:13.652Z,0.00
2023-04-21T01:16:14.110Z,0.00
2023-04-21T01:17:13.023Z,0.00
2023-04-21T01:18:13.050Z,0.00
2023-04-21T01:19:13.108Z,0.00
2023-04-21T01:20:13.030Z,0.00
2023-04-21T01:21:13.342Z,0.00
2023-04-21T01:22:13.438Z,0.00
2023-04-21T01:23:13.640Z,0.00
2023-04-21T01:24:14.389Z,0.00
2023-04-21T01:25:13.472Z,0.00
2023-04-21T01:26:13.596Z,0.00
2023-04-21T01:27:13.500Z,0.00
2023-04-21T01:28:13.458Z,0.00
2023-04-21T01:29:13.538Z,0.00
2023-04-21T01:30:13.791Z,0.00
2023-04-21T01:31:13.694Z,0.00
2023-04-21T01:32:13.682Z,0.00
2023-04-21T01:33:13.850Z,0.00
2023-04-21T01:34:14.085Z,0.08
2023-04-21T01:35:12.994Z,0.00
2023-04-21T01:36:13.410Z,0.84
2023-04-21T01:37:13.724Z,1.00
2023-04-21T01:38:13.791Z,1.80
2023-04-21T01:39:13.714Z,0.08
2023-04-21T01:40:13.780Z,1.20
2023-04-21T01:41:13.828Z,1.88
2023-04-21T01:42:13.924Z,1.68
2023-04-21T01:43:13.203Z,2.04
2023-04-21T01:44:13.340Z,0.32
2023-04-21T01:45:13.362Z,0.00
2023-04-21T01:46:13.720Z,1.60
2023-04-21T01:47:13.681Z,0.44
2023-04-21T01:48:13.662Z,2.80
2023-04-21T01:49:13.514Z,1.88
2023-04-21T01:50:13.526Z,4.52
2023-04-21T01:51:13.446Z,2.24
2023-04-21T01:52:13.455Z,5.08
2023-04-21T01:53:13.351Z,3.44
2023-04-21T01:54:13.295Z,5.56
2023-04-21T01:55:13.671Z,5.92
2023-04-21T01:56:13.707Z,5.44
2023-04-21T01:57:14.073Z,8.32
2023-04-21T01:58:12.960Z,7.92
2023-04-21T01:59:12.908Z,6.48
2023-04-21T02:00:13.082Z,7.76
2023-04-21T02:01:13.172Z,7.64
2023-04-21T02:02:13.515Z,4.35
2023-04-21T02:03:13.557Z,1.08
2023-04-21T02:04:14.230Z,3.48
2023-04-21T02:05:13.306Z,0.56
2023-04-21T02:06:13.476Z,0.00
2023-04-21T02:07:13.584Z,0.00
2023-04-21T02:08:13.559Z,0.00
2023-04-21T02:09:13.852Z,0.12
2023-04-21T02:10:13.765Z,0.00
2023-04-21T02:11:13.735Z,0.24
2023-04-21T02:12:13.832Z,0.96
2023-04-21T02:13:13.864Z,0.00
2023-04-21T02:14:13.898Z,0.00
2023-04-21T02:15:12.825Z,0.00
2023-04-21T02:16:14.503Z,0.00
2023-04-21T02:17:13.965Z,0.00
2023-04-21T02:18:12.896Z,0.00
2023-04-21T02:19:13.002Z,0.16
2023-04-21T02:20:12.913Z,0.00
2023-04-21T02:21:13.005Z,0.00
2023-04-21T02:22:13.798Z,0.36
2023-04-21T02:23:14.023Z,0.00
2023-04-21T02:24:13.030Z,0.12
2023-04-21T02:25:13.174Z,0.08
2023-04-21T02:26:13.235Z,0.76
2023-04-21T02:27:13.111Z,2.64
2023-04-21T02:28:13.301Z,1.56
2023-04-21T02:29:13.145Z,0.00
2023-04-21T02:30:12.982Z,1.96
2023-04-21T02:31:13.072Z,3.44
2023-04-21T02:33:13.134Z,4.44
2023-04-21T02:34:13.188Z,3.96
2023-04-21T02:35:13.217Z,5.28
2023-04-21T02:36:13.114Z,3.20
2023-04-21T02:37:13.335Z,3.16
2023-04-21T02:38:13.279Z,0.08
2023-04-21T02:39:13.181Z,0.00
2023-04-21T02:40:13.391Z,0.76
2023-04-21T02:41:13.725Z,0.40
2023-04-21T02:42:13.584Z,2.16
2023-04-21T02:43:13.632Z,0.80
2023-04-21T02:44:13.516Z,0.00
2023-04-21T02:45:13.746Z,0.00
2023-04-21T02:46:13.568Z,0.00
2023-04-21T02:47:13.569Z,0.00
2023-04-21T02:48:13.398Z,0.00
2023-04-21T02:49:13.262Z,0.00
2023-04-21T02:50:13.291Z,0.00
2023-04-21T02:51:13.428Z,0.00
2023-04-21T02:52:13.502Z,0.00
2023-04-21T02:53:13.811Z,0.12
2023-04-21T02:54:13.666Z,4.16
2023-04-21T02:55:13.810Z,5.64
2023-04-21T02:56:13.731Z,1.52
2023-04-21T02:57:13.588Z,0.00
2023-04-21T02:58:13.488Z,0.00
2023-04-21T02:59:13.371Z,4.08
2023-04-21T03:00:13.345Z,6.28
2023-04-21T03:01:13.322Z,4.68
2023-04-21T03:02:13.302Z,3.08
2023-04-21T03:03:13.377Z,6.16
2023-04-21T03:04:13.441Z,5.64
2023-04-21T03:05:13.523Z,4.40
2023-04-21T03:06:14.784Z,4.92
2023-04-21T03:07:13.910Z,3.00
2023-04-21T03:08:12.784Z,4.56
2023-04-21T03:09:13.850Z,0.52
2023-04-21T03:10:14.160Z,1.72
2023-04-21T03:11:13.112Z,0.24
2023-04-21T03:12:13.037Z,0.00
2023-04-21T03:13:13.179Z,0.00
2023-04-21T03:14:13.048Z,0.00
2023-04-21T03:15:13.166Z,0.00
2023-04-21T03:16:13.526Z,0.00
2023-04-21T03:17:13.680Z,2.12
2023-04-21T03:18:13.744Z,1.56
2023-04-21T03:19:13.899Z,0.00
2023-04-21T03:20:12.920Z,0.00
2023-04-21T03:21:12.724Z,0.00
2023-04-21T03:22:13.781Z,0.00
2023-04-21T03:23:13.709Z,0.00
2023-04-21T03:24:13.620Z,0.00
2023-04-21T03:25:13.805Z,0.00
2023-04-21T03:26:13.762Z,0.00
2023-04-21T03:27:14.119Z,0.00
2023-04-21T03:28:13.420Z,0.00
2023-04-21T03:29:13.372Z,0.00
2023-04-21T03:30:13.374Z,0.00
2023-04-21T03:31:13.206Z,0.00
2023-04-21T03:32:13.430Z,0.00
2023-04-21T03:33:13.772Z,0.00
2023-04-21T03:34:13.905Z,0.00
2023-04-21T03:35:17.820Z,0.00
2023-04-21T03:36:13.877Z,0.00
2023-04-21T03:37:12.737Z,0.00
2023-04-21T03:38:13.786Z,0.00
2023-04-21T03:39:20.191Z,0.00
2023-04-21T03:40:13.553Z,0.00
2023-04-21T03:41:13.560Z,0.00
2023-04-21T03:42:13.741Z,0.00
2023-04-21T03:43:14.118Z,0.00
2023-04-21T03:44:13.161Z,0.00
2023-04-21T03:45:13.081Z,0.00
2023-04-21T03:46:13.324Z,0.00
2023-04-21T03:47:13.526Z,0.00
2023-04-21T03:48:14.545Z,0.00
2023-04-21T03:49:13.959Z,0.00
2023-04-21T03:50:13.033Z,0.00
2023-04-21T03:51:13.165Z,0.00
2023-04-21T03:52:13.072Z,0.00
2023-04-21T03:53:12.974Z,0.00
2023-04-21T03:54:12.976Z,0.00
2023-04-21T03:55:12.988Z,0.00
2023-04-21T03:56:13.720Z,0.00
2023-04-21T03:57:13.857Z,0.00
2023-04-21T03:58:13.779Z,0.00
2023-04-21T03:59:13.624Z,0.00
2023-04-21T04:00:13.760Z,0.00
2023-04-21T04:01:13.959Z,0.00
2023-04-21T04:02:13.094Z,0.00
2023-04-21T04:03:13.378Z,0.00
2023-04-21T04:04:13.701Z,0.00
2023-04-21T04:05:14.372Z,0.00
2023-04-21T04:06:13.430Z,0.00
2023-04-21T04:07:13.395Z,0.00
2023-04-21T04:08:13.583Z,0.00
2023-04-21T04:09:13.634Z,0.00
2023-04-21T04:10:13.569Z,0.00
2023-04-21T04:11:13.831Z,0.00
2023-04-21T04:12:13.841Z,0.00
2023-04-21T04:13:13.939Z,0.00
2023-04-21T04:14:13.663Z,0.00
2023-04-21T04:15:13.560Z,0.00
2023-04-21T04:16:13.636Z,0.00
2023-04-21T04:17:14.030Z,0.00
2023-04-21T04:18:12.870Z,0.00
2023-04-21T04:19:13.777Z,0.00
2023-04-21T04:20:13.738Z,0.00
2023-04-21T04:21:13.798Z,0.00
2023-04-21T04:22:13.909Z,0.00
2023-04-21T04:23:12.962Z,0.00
2023-04-21T04:24:12.894Z,1.76
2023-04-21T04:25:13.145Z,3.64
2023-04-21T04:26:13.133Z,4.28
2023-04-21T04:27:13.166Z,3.96
2023-04-21T04:28:13.081Z,2.64
2023-04-21T04:29:13.221Z,0.20
2023-04-21T04:30:13.167Z,0.00
2023-04-21T04:31:13.271Z,0.00
2023-04-21T04:32:13.674Z,0.00
2023-04-21T04:33:13.963Z,0.00
2023-04-21T04:34:12.903Z,0.00
2023-04-21T04:35:12.957Z,0.00
2023-04-21T04:36:13.023Z,0.08
2023-04-21T04:37:13.347Z,2.76
2023-04-21T04:38:13.659Z,2.12
2023-04-21T04:39:13.838Z,0.72
2023-04-21T04:40:13.856Z,3.48
2023-04-21T04:41:13.860Z,6.92
2023-04-21T04:42:12.818Z,2.88
2023-04-21T04:43:13.720Z,2.08
2023-04-21T04:44:13.630Z,3.08
2023-04-21T04:45:13.491Z,4.20
2023-04-21T04:46:13.540Z,4.28
2023-04-21T04:47:13.933Z,4.16
2023-04-21T04:48:12.863Z,2.68
2023-04-21T04:49:13.778Z,0.24
2023-04-21T04:50:13.985Z,2.84
2023-04-21T04:51:12.936Z,2.92
2023-04-21T04:52:13.038Z,3.44
2023-04-21T04:53:12.864Z,2.84
2023-04-21T04:54:13.708Z,1.48
2023-04-21T04:55:13.740Z,2.72
2023-04-21T04:56:13.956Z,2.88
2023-04-21T04:57:12.909Z,2.56
2023-04-21T04:58:12.758Z,0.00
2023-04-21T04:59:13.691Z,0.00
2023-04-21T05:00:13.553Z,0.00
2023-04-21T05:01:13.446Z,0.00
2023-04-21T05:02:13.553Z,0.00
2023-04-21T05:03:14.146Z,0.00
2023-04-21T05:04:13.513Z,0.00
2023-04-21T05:05:13.844Z,0.00
2023-04-21T05:06:12.905Z,0.00
2023-04-21T05:07:13.016Z,0.00
2023-04-21T05:08:13.738Z,0.00
2023-04-21T05:09:13.465Z,0.00
2023-04-21T05:10:13.628Z,0.00
2023-04-21T05:11:13.806Z,0.00
2023-04-21T05:12:14.439Z,0.00
2023-04-21T05:13:13.596Z,0.00
2023-04-21T05:14:13.526Z,0.16
2023-04-21T05:15:13.558Z,0.00
2023-04-21T05:16:13.650Z,0.00
2023-04-21T05:17:13.539Z,0.00
2023-04-21T05:18:13.494Z,0.00
2023-04-21T05:19:13.505Z,0.00
2023-04-21T05:20:13.466Z,0.00
2023-04-21T05:21:13.345Z,0.00
2023-04-21T05:22:13.755Z,0.00
2023-04-21T05:23:13.755Z,0.72
2023-04-21T05:24:13.795Z,0.44
2023-04-21T05:27:13.716Z,1.76
2023-04-21T05:28:13.713Z,0.16
2023-04-21T05:29:13.710Z,0.44
2023-04-21T05:30:18.711Z,3.60
2023-04-21T05:31:13.968Z,5.24
2023-04-21T05:32:13.154Z,4.36
2023-04-21T05:33:13.220Z,3.56
2023-04-21T05:34:13.545Z,3.44
2023-04-21T05:35:13.704Z,0.28
2023-04-21T05:36:13.856Z,1.20
2023-04-21T05:37:13.827Z,2.36
2023-04-21T05:38:13.913Z,1.84
2023-04-21T05:39:14.256Z,0.00
2023-04-21T05:40:13.497Z,0.24
2023-04-21T05:41:13.339Z,2.20
2023-04-21T05:42:13.359Z,3.24
2023-04-21T05:43:13.269Z,2.64
2023-04-21T05:44:13.473Z,1.88
2023-04-21T05:45:13.351Z,1.96
2023-04-21T05:46:13.225Z,0.16
2023-04-21T05:47:13.293Z,0.80
2023-04-21T05:48:13.760Z,1.72
2023-04-21T05:49:12.861Z,1.20
2023-04-21T05:50:13.785Z,3.16
2023-04-21T05:51:13.961Z,0.21
2023-04-21T05:52:13.384Z,1.28
2023-04-21T05:53:13.549Z,0.08
2023-04-21T05:54:13.607Z,1.06
2023-04-21T05:55:13.825Z,0.92
2023-04-21T05:56:13.793Z,1.68
2023-04-21T05:57:13.720Z,2.28
2023-04-21T05:58:13.892Z,2.76
2023-04-21T05:59:12.835Z,1.68
2023-04-21T06:00:14.102Z,0.00
2023-04-21T06:01:13.084Z,1.16
2023-04-21T06:02:13.348Z,3.16
2023-04-21T06:03:13.628Z,2.00
2023-04-21T06:04:14.020Z,1.60
2023-04-21T06:05:13.946Z,0.00
2023-04-21T06:06:12.906Z,0.08
2023-04-21T06:07:12.823Z,0.00
2023-04-21T06:08:13.842Z,0.00
2023-04-21T06:09:13.727Z,0.00
2023-04-21T06:10:13.658Z,0.00
2023-04-21T06:11:13.684Z,0.00
2023-04-21T06:12:13.471Z,0.00
2023-04-21T06:13:13.391Z,0.00
2023-04-21T06:14:13.369Z,0.24
2023-04-21T06:15:13.282Z,2.72
2023-04-21T06:16:13.415Z,3.48
2023-04-21T06:17:13.622Z,4.80
2023-04-21T06:18:13.607Z,5.08
2023-04-21T06:19:13.793Z,5.16
2023-04-21T06:20:13.693Z,3.84
2023-04-21T06:21:13.575Z,1.72
2023-04-21T06:22:13.507Z,3.20
2023-04-21T06:23:13.512Z,2.40
2023-04-21T06:24:13.890Z,3.28
2023-04-21T06:25:12.758Z,4.68
2023-04-21T06:26:13.668Z,2.92
2023-04-21T06:27:13.569Z,3.40
2023-04-21T06:28:13.463Z,0.20
2023-04-21T06:29:13.609Z,1.12
2023-04-21T06:30:13.590Z,2.36
2023-04-21T06:31:13.500Z,3.20
2023-04-21T06:32:13.722Z,6.04
2023-04-21T06:33:13.838Z,0.28
2023-04-21T06:34:13.971Z,0.00
2023-04-21T06:35:12.849Z,0.88
2023-04-21T06:36:14.739Z,5.16
2023-04-21T06:37:13.712Z,1.92
2023-04-21T06:38:13.732Z,4.52
2023-04-21T06:39:13.944Z,4.96
2023-04-21T06:40:13.344Z,4.72
2023-04-21T06:41:13.224Z,1.48
2023-04-21T06:42:13.329Z,0.00
2023-04-21T06:43:13.301Z,0.00
2023-04-21T06:44:13.406Z,0.00
2023-04-21T06:45:13.556Z,1.96
2023-04-21T06:46:13.542Z,2.08
2023-04-21T06:47:15.291Z,0.44
2023-04-21T06:48:13.480Z,1.58
2023-04-21T06:49:13.668Z,0.00
2023-04-21T06:50:13.929Z,0.00
2023-04-21T06:51:13.270Z,0.00
2023-04-21T06:52:13.356Z,0.00
2023-04-21T06:53:13.404Z,0.00
2023-04-21T06:54:13.628Z,0.00
2023-04-21T06:55:13.673Z,2.32
2023-04-21T06:56:13.763Z,1.56
2023-04-21T06:57:13.817Z,2.96
2023-04-21T06:58:14.198Z,0.32
2023-04-21T06:59:13.128Z,1.64
2023-04-21T07:00:13.274Z,1.20
2023-04-21T07:01:13.726Z,0.00
2023-04-21T07:02:14.078Z,0.00
2023-04-21T07:03:13.119Z,0.00
2023-04-21T07:04:14.690Z,0.72
2023-04-21T07:05:14.079Z,0.72
2023-04-21T07:06:12.979Z,2.88
2023-04-21T07:07:13.145Z,1.24
2023-04-21T07:08:13.136Z,0.68
2023-04-21T07:09:13.280Z,0.00
2023-04-21T07:10:13.354Z,0.00
2023-04-21T07:11:13.270Z,0.00
2023-04-21T07:12:13.140Z,2.16
2023-04-21T07:13:13.083Z,9.12
2023-04-21T07:14:13.118Z,2.92
2023-04-21T07:15:13.004Z,6.20
2023-04-21T07:16:13.019Z,14.40
2023-04-21T07:17:13.045Z,6.88
2023-04-21T07:18:13.365Z,0.80
2023-04-21T07:19:14.720Z,0.44
2023-04-21T07:20:14.108Z,0.00
2023-04-21T07:21:13.171Z,1.80
2023-04-21T07:22:13.193Z,7.40
2023-04-21T07:23:13.317Z,4.96
2023-04-21T07:24:13.197Z,2.80
2023-04-21T07:25:13.245Z,1.88
2023-04-21T07:26:13.225Z,3.68
2023-04-21T07:27:13.302Z,7.64
2023-04-21T07:28:15.116Z,2.36
2023-04-21T07:29:13.527Z,2.28
2023-04-21T07:30:13.592Z,2.76
2023-04-21T07:31:13.542Z,7.04
2023-04-21T07:32:13.489Z,0.96
2023-04-21T07:33:13.570Z,2.80
2023-04-21T07:34:13.557Z,0.68
2023-04-21T07:35:23.075Z,0.00
2023-04-21T07:36:13.000Z,0.12
2023-04-21T07:37:12.957Z,0.96
2023-04-21T07:38:13.611Z,4.20
2023-04-21T07:39:14.963Z,1.44
2023-04-21T07:40:13.020Z,0.76
2023-04-21T07:41:13.162Z,13.96
2023-04-21T07:42:13.181Z,14.28
2023-04-21T07:43:13.668Z,9.08
2023-04-21T07:44:13.598Z,3.96
2023-04-21T07:45:13.596Z,0.00
2023-04-21T07:46:13.927Z,1.27
2023-04-21T07:47:13.054Z,1.88
2023-04-21T07:48:13.476Z,11.12
2023-04-21T07:49:13.574Z,6.00
2023-04-21T07:50:13.622Z,4.20
2023-04-21T07:51:14.131Z,7.60
2023-04-21T07:52:13.007Z,12.00
2023-04-21T07:53:12.901Z,10.52
2023-04-21T07:54:17.936Z,8.40
2023-04-21T07:55:12.929Z,10.60
2023-04-21T07:56:12.927Z,9.40
2023-04-21T07:57:12.938Z,1.92
2023-04-21T07:58:13.227Z,9.52
2023-04-21T07:59:15.088Z,3.76
2023-04-21T08:00:13.329Z,4.88
2023-04-21T08:01:13.310Z,3.16
2023-04-21T08:02:13.540Z,6.64
2023-04-21T08:03:13.976Z,8.68
2023-04-21T08:04:19.318Z,4.80
2023-04-21T08:05:13.624Z,11.96
2023-04-21T08:06:14.180Z,9.12
2023-04-21T08:07:13.943Z,13.76
2023-04-21T08:08:14.533Z,9.44
2023-04-21T08:09:13.446Z,1.76
2023-04-21T08:10:13.629Z,3.40
2023-04-21T08:11:13.573Z,4.40
2023-04-21T08:12:13.922Z,1.72
2023-04-21T08:13:13.122Z,6.60
2023-04-21T08:14:13.074Z,5.40
2023-04-21T08:15:12.987Z,2.88
2023-04-21T08:16:12.880Z,2.16
2023-04-21T08:17:12.783Z,1.63
2023-04-21T08:18:13.799Z,0.75
2023-04-21T08:19:19.155Z,1.64
2023-04-21T08:20:13.694Z,8.04
2023-04-21T08:21:13.964Z,0.48
2023-04-21T08:22:13.254Z,0.92
2023-04-21T08:23:13.402Z,0.76
2023-04-21T08:24:13.693Z,3.00
2023-04-21T08:25:13.126Z,0.84
2023-04-21T08:26:13.013Z,0.16
2023-04-21T08:27:12.950Z,2.64
2023-04-21T08:28:13.624Z,6.00
2023-04-21T08:29:13.762Z,0.00
2023-04-21T08:30:13.835Z,4.60
2023-04-21T08:31:13.866Z,3.76
2023-04-21T08:32:13.947Z,2.84
2023-04-21T08:33:12.956Z,1.24
2023-04-21T08:34:12.930Z,1.24
2023-04-21T08:35:13.962Z,0.12
2023-04-21T08:36:26.155Z,0.00
2023-04-21T08:37:13.397Z,0.24
2023-04-21T08:38:13.351Z,0.96
2023-04-21T08:39:13.649Z,0.00
2023-04-21T08:40:13.463Z,1.04
2023-04-21T08:41:13.364Z,0.84
2023-04-21T08:42:13.345Z,0.00
2023-04-21T08:43:13.228Z,0.00
2023-04-21T08:44:13.040Z,0.72
2023-04-21T08:45:13.381Z,0.44
2023-04-21T08:46:13.429Z,4.00
2023-04-21T08:47:13.593Z,2.40
2023-04-21T08:48:13.817Z,0.00
2023-04-21T08:49:19.052Z,4.64
2023-04-21T08:50:13.445Z,2.84
2023-04-21T08:51:14.581Z,5.08
2023-04-21T08:52:13.492Z,0.24
2023-04-21T08:53:13.464Z,12.08
2023-04-21T08:54:13.378Z,3.44
2023-04-21T08:55:13.601Z,6.36
2023-04-21T08:56:13.697Z,3.36
2023-04-21T08:57:15.814Z,8.36
2023-04-21T08:58:13.570Z,10.44
2023-04-21T08:59:13.644Z,3.04
2023-04-21T09:00:13.491Z,2.44
2023-04-21T09:01:13.707Z,7.96
2023-04-21T09:02:14.034Z,1.48
2023-04-21T09:03:23.149Z,0.84
2023-04-21T09:04:13.966Z,0.00
2023-04-21T09:05:18.314Z,3.16
2023-04-21T09:06:14.575Z,3.64
2023-04-21T09:07:13.943Z,4.40
2023-04-21T09:08:13.118Z,2.12
2023-04-21T09:09:13.024Z,1.64
2023-04-21T09:10:12.901Z,1.44
2023-04-21T09:11:12.965Z,1.92
2023-04-21T09:12:12.839Z,7.88
2023-04-21T09:13:13.867Z,9.96
2023-04-21T09:14:13.815Z,3.40
2023-04-21T09:15:13.705Z,0.64
2023-04-21T09:16:13.891Z,0.00
2023-04-21T09:17:12.862Z,9.52
2023-04-21T09:18:14.067Z,1.00
2023-04-21T09:19:13.399Z,3.80
2023-04-21T09:20:13.258Z,5.28
2023-04-21T09:21:13.093Z,6.32
2023-04-21T09:22:13.059Z,0.96
2023-04-21T09:23:12.886Z,3.28
2023-04-21T09:24:12.758Z,1.40
2023-04-21T09:25:13.758Z,2.08
2023-04-21T09:26:13.578Z,0.00
2023-04-21T09:27:13.579Z,1.44
2023-04-21T09:28:13.355Z,3.04
2023-04-21T09:29:13.494Z,0.96
2023-04-21T09:30:13.437Z,10.64
2023-04-21T09:31:13.593Z,4.32
2023-04-21T09:32:13.656Z,2.56
2023-04-21T09:33:24.388Z,1.28
2023-04-21T09:34:14.101Z,0.28
2023-04-21T09:35:13.086Z,3.96
2023-04-21T09:36:13.071Z,8.28
2023-04-21T09:37:13.874Z,0.80
2023-04-21T09:38:13.391Z,2.56
2023-04-21T09:39:34.313Z,10.60
2023-04-21T09:40:13.410Z,6.92
2023-04-21T09:41:13.363Z,6.00
2023-04-21T09:42:13.695Z,4.08
2023-04-21T09:43:13.660Z,2.64
2023-04-21T09:44:13.809Z,8.44
2023-04-21T09:45:28.857Z,4.56
2023-04-21T09:46:13.933Z,8.28
2023-04-21T09:47:13.147Z,3.88
2023-04-21T09:48:13.725Z,2.36
2023-04-21T09:49:13.588Z,4.80
2023-04-21T09:50:13.716Z,14.48
2023-04-21T09:51:28.733Z,22.20
2023-04-21T09:52:19.173Z,9.16
2023-04-21T09:53:13.745Z,5.44
2023-04-21T09:54:28.437Z,7.80
2023-04-21T09:55:12.977Z,14.88
2023-04-21T09:56:13.004Z,6.32
2023-04-21T09:57:12.932Z,9.26
2023-04-21T09:58:12.902Z,5.88
2023-04-21T09:59:13.158Z,10.68
2023-04-21T10:00:13.357Z,2.32
2023-04-21T10:01:13.493Z,1.60
2023-04-21T10:02:13.905Z,1.36
2023-04-21T10:03:13.123Z,5.24
2023-04-21T10:04:13.823Z,4.08
2023-04-21T10:05:13.131Z,3.68
2023-04-21T10:06:13.270Z,1.88
2023-04-21T10:07:13.314Z,2.24
2023-04-21T10:08:13.470Z,3.52
2023-04-21T10:09:13.397Z,1.44
2023-04-21T10:10:13.426Z,0.00
2023-04-21T10:11:13.358Z,0.88
2023-04-21T10:12:13.700Z,1.92
2023-04-21T10:13:13.963Z,3.28
2023-04-21T10:14:12.856Z,2.04
2023-04-21T10:15:13.805Z,10.48
2023-04-21T10:16:13.814Z,10.96
2023-04-21T10:17:14.234Z,20.20
2023-04-21T10:18:14.611Z,19.92
2023-04-21T10:19:13.882Z,7.36
2023-04-21T10:20:14.142Z,12.76
2023-04-21T10:21:13.264Z,6.88
2023-04-21T10:22:13.451Z,7.00
2023-04-21T10:23:13.339Z,22.04
2023-04-21T10:24:13.518Z,11.72
2023-04-21T10:25:13.653Z,18.68
2023-04-21T10:26:13.688Z,14.20
2023-04-21T10:27:13.726Z,11.92
2023-04-21T10:28:13.935Z,8.60
2023-04-21T10:29:12.843Z,14.04
2023-04-21T10:30:14.027Z,12.44
2023-04-21T10:31:13.081Z,10.40
2023-04-21T10:32:13.573Z,8.84
2023-04-21T10:33:13.776Z,9.28
2023-04-21T10:34:14.044Z,4.04
2023-04-21T10:35:13.018Z,0.60
2023-04-21T10:36:12.899Z,3.44
2023-04-21T10:37:12.934Z,5.48
2023-04-21T10:38:13.401Z,2.40
2023-04-21T10:39:13.415Z,0.16
2023-04-21T10:40:13.539Z,2.48
2023-04-21T10:42:46.047Z,3.44
2023-04-21T10:43:12.989Z,0.24
2023-04-21T10:44:13.531Z,6.64
2023-04-21T10:45:13.508Z,8.96
2023-04-21T10:46:13.432Z,14.36
2023-04-21T10:47:13.596Z,8.08
2023-04-21T10:48:13.845Z,4.32
2023-04-21T10:49:13.225Z,1.72
2023-04-21T10:50:13.182Z,8.00
2023-04-21T10:51:13.231Z,2.40
2023-04-21T10:52:13.300Z,4.24
2023-04-21T10:53:13.257Z,2.36
2023-04-21T10:54:13.362Z,2.80
2023-04-21T10:55:13.628Z,3.12
2023-04-21T10:56:13.494Z,3.08
2023-04-21T10:57:13.669Z,0.12
2023-04-21T10:58:13.998Z,0.00
2023-04-21T10:59:12.934Z,2.04
2023-04-21T11:00:13.016Z,5.36
2023-04-21T11:01:13.050Z,0.00
2023-04-21T11:02:13.421Z,0.12
2023-04-21T11:03:13.888Z,0.00
2023-04-21T11:04:13.592Z,0.00
2023-04-21T11:05:14.192Z,1.96
2023-04-21T11:06:13.092Z,0.76
2023-04-21T11:07:13.064Z,0.92
2023-04-21T11:08:13.172Z,6.32
2023-04-21T11:09:14.257Z,5.56
2023-04-21T11:10:13.255Z,0.28
2023-04-21T11:11:13.469Z,0.68
2023-04-21T11:12:13.362Z,0.00
2023-04-21T11:13:13.333Z,0.20
2023-04-21T11:14:13.693Z,0.20
2023-04-21T11:15:13.703Z,0.00
2023-04-21T11:16:13.756Z,0.00
2023-04-21T11:17:13.859Z,0.00
2023-04-21T11:18:12.845Z,0.00
2023-04-21T11:19:13.857Z,0.00
2023-04-21T11:20:13.954Z,0.00
2023-04-21T11:21:13.057Z,0.00
2023-04-21T11:22:13.068Z,0.00
2023-04-21T11:23:13.038Z,0.88
2023-04-21T11:24:12.988Z,0.00
2023-04-21T11:25:13.221Z,0.16
2023-04-21T11:26:13.106Z,2.12
2023-04-21T11:27:12.997Z,0.16
2023-04-21T11:28:13.218Z,0.00
2023-04-21T11:29:13.659Z,3.16
2023-04-21T11:30:14.009Z,3.04
2023-04-21T11:31:13.064Z,4.96
2023-04-21T11:32:13.033Z,1.44
2023-04-21T11:33:13.023Z,1.24
2023-04-21T11:34:13.367Z,0.00
2023-04-21T11:35:13.417Z,0.00
2023-04-21T11:36:13.884Z,0.00
2023-04-21T11:37:13.097Z,0.00
2023-04-21T11:38:13.276Z,0.00
2023-04-21T11:39:13.386Z,0.12
2023-04-21T11:40:13.351Z,3.72
2023-04-21T11:41:13.595Z,2.00
2023-04-21T11:42:13.937Z,0.00
2023-04-21T11:43:13.086Z,0.00
2023-04-21T11:44:12.995Z,0.00
2023-04-21T11:45:12.950Z,0.00
2023-04-21T11:46:13.002Z,0.00
2023-04-21T11:47:12.963Z,0.00
2023-04-21T11:48:14.061Z,0.00
2023-04-21T11:49:12.964Z,0.00
2023-04-21T11:50:13.108Z,0.24
2023-04-21T11:51:13.163Z,1.68
2023-04-21T11:52:13.513Z,0.40
2023-04-21T11:53:13.435Z,5.12
2023-04-21T11:54:13.516Z,1.92
2023-04-21T11:55:13.537Z,0.00
2023-04-21T11:56:13.798Z,0.00
2023-04-21T11:57:13.954Z,0.00
2023-04-21T11:58:12.756Z,0.12
2023-04-21T11:59:13.697Z,7.00
2023-04-21T12:00:13.809Z,8.20
2023-04-21T12:01:13.761Z,7.80
2023-04-21T12:02:13.832Z,0.00
2023-04-21T12:03:13.033Z,4.20
2023-04-21T12:04:14.325Z,0.00
2023-04-21T12:05:13.345Z,0.00
2023-04-21T12:06:13.383Z,2.44
2023-04-21T12:07:13.523Z,12.24
2023-04-21T12:08:13.593Z,12.24
2023-04-21T12:09:13.472Z,8.64
2023-04-21T12:10:13.670Z,3.60
2023-04-21T12:11:13.717Z,0.00
2023-04-21T12:12:13.564Z,0.32
2023-04-21T12:13:13.479Z,5.00
2023-04-21T12:14:13.576Z,6.68
2023-04-21T12:15:13.968Z,3.20
2023-04-21T12:16:12.944Z,0.68
2023-04-21T12:17:12.938Z,5.36
2023-04-21T12:18:12.950Z,1.56
2023-04-21T12:19:13.080Z,0.32
2023-04-21T12:20:13.039Z,3.16
2023-04-21T12:21:13.051Z,3.20
2023-04-21T12:22:13.283Z,4.40
2023-04-21T12:23:13.384Z,1.40
2023-04-21T12:24:13.341Z,0.88
2023-04-21T12:25:13.403Z,0.00
2023-04-21T12:26:13.287Z,1.80
2023-04-21T12:27:13.197Z,0.88
2023-04-21T12:28:13.277Z,0.20
2023-04-21T12:29:13.259Z,2.56
2023-04-21T12:30:13.410Z,1.44
2023-04-21T12:31:13.395Z,2.36
2023-04-21T12:32:13.688Z,2.08
2023-04-21T12:33:13.715Z,0.28
2023-04-21T12:34:13.854Z,0.64
2023-04-21T12:35:13.889Z,0.24
2023-04-21T12:36:12.827Z,3.20
2023-04-21T12:37:13.908Z,1.00
2023-04-21T12:38:13.211Z,0.28
2023-04-21T12:39:13.290Z,0.64
2023-04-21T12:40:13.451Z,1.04
2023-04-21T12:41:13.300Z,1.08
2023-04-21T12:42:13.316Z,4.28
2023-04-21T12:43:13.415Z,2.96
2023-04-21T12:44:13.487Z,7.44
2023-04-21T12:45:13.483Z,2.04
2023-04-21T12:46:14.033Z,1.48
2023-04-21T12:47:12.995Z,2.36
2023-04-21T12:48:13.127Z,9.20
2023-04-21T12:49:13.227Z,24.08
2023-04-21T12:50:13.207Z,19.00
2023-04-21T12:51:18.157Z,2.08
2023-04-21T12:52:13.164Z,2.12
2023-04-21T12:53:14.449Z,12.96
2023-04-21T12:54:13.260Z,14.84
2023-04-21T12:55:13.272Z,11.32
2023-04-21T12:56:13.159Z,1.28
2023-04-21T12:57:13.267Z,0.00
2023-04-21T12:58:17.912Z,4.64
2023-04-21T12:59:13.178Z,10.12
2023-04-21T13:00:13.684Z,5.24
2023-04-21T13:01:13.849Z,4.80
2023-04-21T13:02:14.313Z,5.72
2023-04-21T13:03:13.763Z,1.80
2023-04-21T13:04:14.377Z,1.16
2023-04-21T13:05:13.532Z,3.24
2023-04-21T13:06:15.137Z,1.40
2023-04-21T13:07:13.200Z,2.08
2023-04-21T13:08:13.150Z,1.20
2023-04-21T13:09:13.205Z,0.00
2023-04-21T13:10:13.476Z,0.36
2023-04-21T13:11:13.610Z,0.88
2023-04-21T13:12:13.560Z,2.24
2023-04-21T13:13:13.585Z,2.16
2023-04-21T13:14:13.453Z,1.60
2023-04-21T13:15:13.529Z,3.08
2023-04-21T13:16:13.612Z,1.24
2023-04-21T13:17:13.651Z,1.84
2023-04-21T13:18:13.575Z,0.00
2023-04-21T13:19:13.545Z,2.52
2023-04-21T13:20:13.600Z,4.68
2023-04-21T13:21:13.600Z,1.04
2023-04-21T13:22:13.825Z,2.44